sensor_id;sensor_type;location;lat;lon;timestamp;P1;durP1;ratioP1;P2;durP2;ratioP2
66830;SDS011;53739;44.224;22.528;2024-03-08T00:00:56;116.18;;;53.75;;
66830;SDS011;53739;44.224;22.528;2024-03-08T00:03:22;96.72;;;47.13;;
66830;SDS011;53739;44.224;22.528;2024-03-08T00:05:48;145.05;;;67.28;;
66830;SDS011;53739;44.224;22.528;2024-03-08T00:08:15;81.63;;;38.13;;
66830;SDS011;53739;44.224;22.528;2024-03-08T00:10:41;76.53;;;33.25;;
66830;SDS011;53739;44.224;22.528;2024-03-08T00:13:07;58.05;;;27.25;;
66830;SDS011;53739;44.224;22.528;2024-03-08T00:15:33;67.60;;;31.88;;
66830;SDS011;53739;44.224;22.528;2024-03-08T00:18:00;58.75;;;26.90;;
66830;SDS011;53739;44.224;22.528;2024-03-08T00:20:26;59.28;;;26.40;;
66830;SDS011;53739;44.224;22.528;2024-03-08T00:22:53;54.92;;;25.00;;
66830;SDS011;53739;44.224;22.528;2024-03-08T00:25:19;56.72;;;25.80;;
66830;SDS011;53739;44.224;22.528;2024-03-08T00:27:45;47.45;;;22.00;;
66830;SDS011;53739;44.224;22.528;2024-03-08T00:30:14;58.70;;;25.80;;
66830;SDS011;53739;44.224;22.528;2024-03-08T00:32:40;51.20;;;23.95;;
66830;SDS011;53739;44.224;22.528;2024-03-08T00:35:06;58.80;;;23.90;;
66830;SDS011;53739;44.224;22.528;2024-03-08T00:37:33;50.05;;;23.05;;
66830;SDS011;53739;44.224;22.528;2024-03-08T00:40:02;65.75;;;31.75;;
66830;SDS011;53739;44.224;22.528;2024-03-08T00:42:28;59.25;;;28.45;;
66830;SDS011;53739;44.224;22.528;2024-03-08T00:44:54;55.38;;;24.80;;
66830;SDS011;53739;44.224;22.528;2024-03-08T00:47:20;42.03;;;20.02;;
66830;SDS011;53739;44.224;22.528;2024-03-08T00:49:46;49.97;;;20.42;;
66830;SDS011;53739;44.224;22.528;2024-03-08T00:52:12;51.03;;;23.70;;
66830;SDS011;53739;44.224;22.528;2024-03-08T00:54:39;45.88;;;21.30;;
66830;SDS011;53739;44.224;22.528;2024-03-08T00:57:05;40.80;;;18.73;;
66830;SDS011;53739;44.224;22.528;2024-03-08T00:59:31;47.05;;;21.27;;
66830;SDS011;53739;44.224;22.528;2024-03-08T01:01:58;43.75;;;20.63;;
66830;SDS011;53739;44.224;22.528;2024-03-08T01:04:25;45.20;;;20.85;;
66830;SDS011;53739;44.224;22.528;2024-03-08T01:06:54;49.78;;;22.63;;
66830;SDS011;53739;44.224;22.528;2024-03-08T01:09:21;55.22;;;23.95;;
66830;SDS011;53739;44.224;22.528;2024-03-08T01:11:48;51.00;;;24.20;;
66830;SDS011;53739;44.224;22.528;2024-03-08T01:14:14;65.38;;;33.83;;
66830;SDS011;53739;44.224;22.528;2024-03-08T01:16:41;57.00;;;27.63;;
66830;SDS011;53739;44.224;22.528;2024-03-08T01:19:07;62.72;;;29.45;;
66830;SDS011;53739;44.224;22.528;2024-03-08T01:21:33;69.28;;;28.83;;
66830;SDS011;53739;44.224;22.528;2024-03-08T01:23:59;60.55;;;28.88;;
66830;SDS011;53739;44.224;22.528;2024-03-08T01:26:26;65.82;;;32.40;;
66830;SDS011;53739;44.224;22.528;2024-03-08T01:28:52;57.47;;;28.75;;
66830;SDS011;53739;44.224;22.528;2024-03-08T01:31:18;66.70;;;29.30;;
66830;SDS011;53739;44.224;22.528;2024-03-08T01:33:44;59.10;;;29.60;;
66830;SDS011;53739;44.224;22.528;2024-03-08T01:36:10;57.03;;;26.55;;
66830;SDS011;53739;44.224;22.528;2024-03-08T01:38:40;55.40;;;25.60;;
66830;SDS011;53739;44.224;22.528;2024-03-08T01:41:06;54.05;;;26.10;;
66830;SDS011;53739;44.224;22.528;2024-03-08T01:43:34;53.15;;;24.85;;
66830;SDS011;53739;44.224;22.528;2024-03-08T01:46:00;56.40;;;27.20;;
66830;SDS011;53739;44.224;22.528;2024-03-08T01:48:27;59.30;;;27.98;;
66830;SDS011;53739;44.224;22.528;2024-03-08T01:50:55;54.22;;;24.23;;
66830;SDS011;53739;44.224;22.528;2024-03-08T01:53:22;50.90;;;25.80;;
66830;SDS011;53739;44.224;22.528;2024-03-08T01:55:49;51.10;;;22.23;;
66830;SDS011;53739;44.224;22.528;2024-03-08T01:58:17;47.67;;;22.98;;
66830;SDS011;53739;44.224;22.528;2024-03-08T02:00:45;45.63;;;21.70;;
66830;SDS011;53739;44.224;22.528;2024-03-08T02:03:14;53.13;;;24.50;;
66830;SDS011;53739;44.224;22.528;2024-03-08T02:05:40;49.33;;;22.10;;
66830;SDS011;53739;44.224;22.528;2024-03-08T02:08:07;47.55;;;21.27;;
66830;SDS011;53739;44.224;22.528;2024-03-08T02:10:38;52.33;;;23.05;;
66830;SDS011;53739;44.224;22.528;2024-03-08T02:13:04;47.35;;;21.23;;
66830;SDS011;53739;44.224;22.528;2024-03-08T02:18:15;46.88;;;19.65;;
66830;SDS011;53739;44.224;22.528;2024-03-08T02:20:42;62.03;;;25.35;;
66830;SDS011;53739;44.224;22.528;2024-03-08T02:23:08;44.10;;;21.48;;
66830;SDS011;53739;44.224;22.528;2024-03-08T02:25:35;48.70;;;21.67;;
66830;SDS011;53739;44.224;22.528;2024-03-08T02:28:02;47.25;;;21.52;;
66830;SDS011;53739;44.224;22.528;2024-03-08T02:30:28;58.25;;;22.77;;
66830;SDS011;53739;44.224;22.528;2024-03-08T02:32:55;47.20;;;22.70;;
66830;SDS011;53739;44.224;22.528;2024-03-08T02:35:21;46.30;;;21.30;;
66830;SDS011;53739;44.224;22.528;2024-03-08T02:37:47;46.17;;;21.48;;
66830;SDS011;53739;44.224;22.528;2024-03-08T02:40:13;43.67;;;20.98;;
66830;SDS011;53739;44.224;22.528;2024-03-08T02:42:39;38.90;;;18.23;;
66830;SDS011;53739;44.224;22.528;2024-03-08T02:45:06;45.85;;;19.52;;
66830;SDS011;53739;44.224;22.528;2024-03-08T02:47:34;43.22;;;20.52;;
66830;SDS011;53739;44.224;22.528;2024-03-08T02:50:01;42.13;;;20.50;;
66830;SDS011;53739;44.224;22.528;2024-03-08T02:52:28;46.80;;;19.90;;
66830;SDS011;53739;44.224;22.528;2024-03-08T02:54:54;38.90;;;18.90;;
66830;SDS011;53739;44.224;22.528;2024-03-08T02:57:20;43.42;;;19.75;;
66830;SDS011;53739;44.224;22.528;2024-03-08T02:59:47;45.75;;;21.45;;
66830;SDS011;53739;44.224;22.528;2024-03-08T03:02:13;48.65;;;21.80;;
66830;SDS011;53739;44.224;22.528;2024-03-08T03:04:40;50.25;;;23.38;;
66830;SDS011;53739;44.224;22.528;2024-03-08T03:07:06;46.53;;;23.05;;
66830;SDS011;53739;44.224;22.528;2024-03-08T03:09:33;41.97;;;20.92;;
66830;SDS011;53739;44.224;22.528;2024-03-08T03:11:59;43.85;;;20.13;;
66830;SDS011;53739;44.224;22.528;2024-03-08T03:14:25;43.08;;;21.50;;
66830;SDS011;53739;44.224;22.528;2024-03-08T03:16:52;39.88;;;19.77;;
66830;SDS011;53739;44.224;22.528;2024-03-08T03:19:19;44.72;;;20.42;;
66830;SDS011;53739;44.224;22.528;2024-03-08T03:21:45;39.85;;;18.80;;
66830;SDS011;53739;44.224;22.528;2024-03-08T03:24:12;46.60;;;20.23;;
66830;SDS011;53739;44.224;22.528;2024-03-08T03:26:41;50.90;;;25.42;;
66830;SDS011;53739;44.224;22.528;2024-03-08T03:29:08;46.88;;;23.70;;
66830;SDS011;53739;44.224;22.528;2024-03-08T03:31:36;45.45;;;21.45;;
66830;SDS011;53739;44.224;22.528;2024-03-08T03:34:02;47.90;;;22.20;;
66830;SDS011;53739;44.224;22.528;2024-03-08T03:36:29;48.60;;;21.75;;
66830;SDS011;53739;44.224;22.528;2024-03-08T03:38:56;48.90;;;23.45;;
66830;SDS011;53739;44.224;22.528;2024-03-08T03:41:32;53.78;;;23.15;;
66830;SDS011;53739;44.224;22.528;2024-03-08T03:43:59;48.75;;;22.60;;
66830;SDS011;53739;44.224;22.528;2024-03-08T03:46:25;53.75;;;25.23;;
66830;SDS011;53739;44.224;22.528;2024-03-08T03:48:52;53.53;;;26.05;;
66830;SDS011;53739;44.224;22.528;2024-03-08T03:51:18;47.75;;;24.15;;
66830;SDS011;53739;44.224;22.528;2024-03-08T03:53:45;50.25;;;25.60;;
66830;SDS011;53739;44.224;22.528;2024-03-08T03:56:11;52.53;;;24.38;;
66830;SDS011;53739;44.224;22.528;2024-03-08T03:58:37;47.00;;;23.63;;
66830;SDS011;53739;44.224;22.528;2024-03-08T04:01:05;53.22;;;24.73;;
66830;SDS011;53739;44.224;22.528;2024-03-08T04:03:31;54.08;;;26.77;;
66830;SDS011;53739;44.224;22.528;2024-03-08T04:05:57;65.47;;;30.80;;
66830;SDS011;53739;44.224;22.528;2024-03-08T04:08:23;59.50;;;29.02;;
66830;SDS011;53739;44.224;22.528;2024-03-08T04:10:50;63.70;;;26.42;;
66830;SDS011;53739;44.224;22.528;2024-03-08T04:13:16;50.92;;;23.95;;
66830;SDS011;53739;44.224;22.528;2024-03-08T04:15:42;47.50;;;23.48;;
66830;SDS011;53739;44.224;22.528;2024-03-08T04:18:09;48.08;;;23.17;;
66830;SDS011;53739;44.224;22.528;2024-03-08T04:20:35;43.97;;;22.40;;
66830;SDS011;53739;44.224;22.528;2024-03-08T04:23:04;49.13;;;22.50;;
66830;SDS011;53739;44.224;22.528;2024-03-08T04:25:30;49.70;;;21.45;;
66830;SDS011;53739;44.224;22.528;2024-03-08T04:27:57;46.38;;;21.92;;
66830;SDS011;53739;44.224;22.528;2024-03-08T04:30:23;52.80;;;24.80;;
66830;SDS011;53739;44.224;22.528;2024-03-08T04:32:49;53.35;;;25.27;;
66830;SDS011;53739;44.224;22.528;2024-03-08T04:35:15;56.50;;;28.23;;
66830;SDS011;53739;44.224;22.528;2024-03-08T04:37:41;58.92;;;25.85;;
66830;SDS011;53739;44.224;22.528;2024-03-08T04:40:08;65.43;;;27.20;;
66830;SDS011;53739;44.224;22.528;2024-03-08T04:42:34;63.13;;;27.48;;
66830;SDS011;53739;44.224;22.528;2024-03-08T04:45:01;52.78;;;24.50;;
66830;SDS011;53739;44.224;22.528;2024-03-08T04:47:27;50.40;;;25.05;;
66830;SDS011;53739;44.224;22.528;2024-03-08T04:49:53;44.67;;;20.45;;
66830;SDS011;53739;44.224;22.528;2024-03-08T04:52:20;42.85;;;19.83;;
66830;SDS011;53739;44.224;22.528;2024-03-08T04:54:47;45.05;;;20.58;;
66830;SDS011;53739;44.224;22.528;2024-03-08T04:57:13;49.97;;;21.52;;
66830;SDS011;53739;44.224;22.528;2024-03-08T04:59:39;51.53;;;22.92;;
66830;SDS011;53739;44.224;22.528;2024-03-08T05:02:05;51.20;;;21.23;;
66830;SDS011;53739;44.224;22.528;2024-03-08T05:04:32;53.88;;;22.30;;
66830;SDS011;53739;44.224;22.528;2024-03-08T05:06:58;46.80;;;22.75;;
66830;SDS011;53739;44.224;22.528;2024-03-08T05:09:26;54.08;;;24.10;;
66830;SDS011;53739;44.224;22.528;2024-03-08T05:11:56;54.47;;;22.48;;
66830;SDS011;53739;44.224;22.528;2024-03-08T05:14:24;59.35;;;25.35;;
66830;SDS011;53739;44.224;22.528;2024-03-08T05:16:50;68.25;;;27.65;;
66830;SDS011;53739;44.224;22.528;2024-03-08T05:19:17;54.67;;;25.15;;
66830;SDS011;53739;44.224;22.528;2024-03-08T05:21:46;54.35;;;25.23;;
66830;SDS011;53739;44.224;22.528;2024-03-08T05:24:13;51.33;;;25.88;;
66830;SDS011;53739;44.224;22.528;2024-03-08T05:26:42;51.88;;;25.92;;
66830;SDS011;53739;44.224;22.528;2024-03-08T05:29:08;56.20;;;25.63;;
66830;SDS011;53739;44.224;22.528;2024-03-08T05:34:09;72.65;;;30.80;;
66830;SDS011;53739;44.224;22.528;2024-03-08T05:36:35;62.15;;;28.20;;
66830;SDS011;53739;44.224;22.528;2024-03-08T05:39:01;73.85;;;29.98;;
66830;SDS011;53739;44.224;22.528;2024-03-08T05:41:31;69.88;;;29.92;;
66830;SDS011;53739;44.224;22.528;2024-03-08T05:43:57;76.38;;;32.00;;
66830;SDS011;53739;44.224;22.528;2024-03-08T05:46:23;74.57;;;30.85;;
66830;SDS011;53739;44.224;22.528;2024-03-08T05:48:49;73.10;;;30.02;;
66830;SDS011;53739;44.224;22.528;2024-03-08T05:51:16;67.75;;;28.08;;
66830;SDS011;53739;44.224;22.528;2024-03-08T05:53:42;61.95;;;29.60;;
66830;SDS011;53739;44.224;22.528;2024-03-08T05:56:11;57.88;;;28.52;;
66830;SDS011;53739;44.224;22.528;2024-03-08T05:58:37;62.15;;;29.75;;
66830;SDS011;53739;44.224;22.528;2024-03-08T06:01:03;65.15;;;30.98;;
66830;SDS011;53739;44.224;22.528;2024-03-08T06:03:33;60.15;;;30.48;;
66830;SDS011;53739;44.224;22.528;2024-03-08T06:05:59;59.45;;;29.88;;
66830;SDS011;53739;44.224;22.528;2024-03-08T06:08:28;59.55;;;28.60;;
66830;SDS011;53739;44.224;22.528;2024-03-08T06:10:55;57.55;;;26.88;;
66830;SDS011;53739;44.224;22.528;2024-03-08T06:13:27;54.55;;;28.63;;
66830;SDS011;53739;44.224;22.528;2024-03-08T06:15:56;56.88;;;27.40;;
66830;SDS011;53739;44.224;22.528;2024-03-08T06:18:22;56.70;;;27.50;;
66830;SDS011;53739;44.224;22.528;2024-03-08T06:20:48;58.17;;;28.35;;
66830;SDS011;53739;44.224;22.528;2024-03-08T06:23:14;54.10;;;27.77;;
66830;SDS011;53739;44.224;22.528;2024-03-08T06:25:44;54.92;;;27.92;;
66830;SDS011;53739;44.224;22.528;2024-03-08T06:28:11;61.75;;;30.02;;
66830;SDS011;53739;44.224;22.528;2024-03-08T06:30:37;75.85;;;34.95;;
66830;SDS011;53739;44.224;22.528;2024-03-08T06:33:03;74.15;;;33.90;;
66830;SDS011;53739;44.224;22.528;2024-03-08T06:35:29;76.55;;;33.95;;
66830;SDS011;53739;44.224;22.528;2024-03-08T06:37:57;67.70;;;32.47;;
66830;SDS011;53739;44.224;22.528;2024-03-08T06:40:24;60.25;;;28.80;;
66830;SDS011;53739;44.224;22.528;2024-03-08T06:42:50;59.45;;;28.77;;
66830;SDS011;53739;44.224;22.528;2024-03-08T06:45:17;53.95;;;27.30;;
66830;SDS011;53739;44.224;22.528;2024-03-08T06:47:46;66.20;;;25.73;;
66830;SDS011;53739;44.224;22.528;2024-03-08T06:50:13;58.70;;;28.77;;
66830;SDS011;53739;44.224;22.528;2024-03-08T06:52:40;63.42;;;28.30;;
66830;SDS011;53739;44.224;22.528;2024-03-08T06:55:11;65.22;;;30.20;;
66830;SDS011;53739;44.224;22.528;2024-03-08T06:57:38;60.70;;;26.40;;
66830;SDS011;53739;44.224;22.528;2024-03-08T07:00:06;62.10;;;26.90;;
66830;SDS011;53739;44.224;22.528;2024-03-08T07:02:34;60.75;;;29.67;;
66830;SDS011;53739;44.224;22.528;2024-03-08T07:05:01;63.58;;;26.92;;
66830;SDS011;53739;44.224;22.528;2024-03-08T07:07:28;60.97;;;28.08;;
66830;SDS011;53739;44.224;22.528;2024-03-08T07:09:55;70.78;;;27.17;;
66830;SDS011;53739;44.224;22.528;2024-03-08T07:12:21;50.78;;;22.83;;
66830;SDS011;53739;44.224;22.528;2024-03-08T07:14:48;55.22;;;26.15;;
66830;SDS011;53739;44.224;22.528;2024-03-08T07:17:14;53.97;;;25.63;;
66830;SDS011;53739;44.224;22.528;2024-03-08T07:19:41;58.78;;;26.17;;
66830;SDS011;53739;44.224;22.528;2024-03-08T07:22:07;53.13;;;26.02;;
66830;SDS011;53739;44.224;22.528;2024-03-08T07:24:37;62.88;;;30.15;;
66830;SDS011;53739;44.224;22.528;2024-03-08T07:27:06;62.83;;;29.13;;
66830;SDS011;53739;44.224;22.528;2024-03-08T07:29:32;62.63;;;28.30;;
66830;SDS011;53739;44.224;22.528;2024-03-08T07:32:01;61.00;;;27.60;;
66830;SDS011;53739;44.224;22.528;2024-03-08T07:34:47;70.10;;;31.08;;
66830;SDS011;53739;44.224;22.528;2024-03-08T07:37:14;71.82;;;30.80;;
66830;SDS011;53739;44.224;22.528;2024-03-08T07:39:40;58.75;;;27.85;;
66830;SDS011;53739;44.224;22.528;2024-03-08T07:42:06;69.07;;;29.67;;
66830;SDS011;53739;44.224;22.528;2024-03-08T07:44:32;68.55;;;32.50;;
66830;SDS011;53739;44.224;22.528;2024-03-08T07:46:58;56.17;;;24.75;;
66830;SDS011;53739;44.224;22.528;2024-03-08T07:49:25;56.22;;;25.40;;
66830;SDS011;53739;44.224;22.528;2024-03-08T07:51:51;50.92;;;23.88;;
66830;SDS011;53739;44.224;22.528;2024-03-08T07:54:17;61.28;;;26.60;;
66830;SDS011;53739;44.224;22.528;2024-03-08T07:56:43;81.78;;;40.90;;
66830;SDS011;53739;44.224;22.528;2024-03-08T07:59:09;84.70;;;40.70;;
66830;SDS011;53739;44.224;22.528;2024-03-08T08:01:37;66.25;;;31.55;;
66830;SDS011;53739;44.224;22.528;2024-03-08T08:04:03;62.65;;;28.67;;
66830;SDS011;53739;44.224;22.528;2024-03-08T08:06:30;63.17;;;29.52;;
66830;SDS011;53739;44.224;22.528;2024-03-08T08:09:00;62.20;;;29.95;;
66830;SDS011;53739;44.224;22.528;2024-03-08T08:11:26;43.78;;;22.23;;
66830;SDS011;53739;44.224;22.528;2024-03-08T08:13:53;66.15;;;30.20;;
66830;SDS011;53739;44.224;22.528;2024-03-08T08:16:20;77.85;;;37.72;;
66830;SDS011;53739;44.224;22.528;2024-03-08T08:18:46;53.42;;;23.60;;
66830;SDS011;53739;44.224;22.528;2024-03-08T08:21:13;54.95;;;25.52;;
66830;SDS011;53739;44.224;22.528;2024-03-08T08:23:39;52.25;;;22.05;;
66830;SDS011;53739;44.224;22.528;2024-03-08T08:26:05;56.90;;;23.50;;
66830;SDS011;53739;44.224;22.528;2024-03-08T08:28:32;49.95;;;22.33;;
66830;SDS011;53739;44.224;22.528;2024-03-08T08:30:59;47.83;;;23.13;;
66830;SDS011;53739;44.224;22.528;2024-03-08T08:33:25;53.05;;;25.02;;
66830;SDS011;53739;44.224;22.528;2024-03-08T08:35:51;56.08;;;24.85;;
66830;SDS011;53739;44.224;22.528;2024-03-08T08:38:19;51.88;;;23.25;;
66830;SDS011;53739;44.224;22.528;2024-03-08T08:40:45;44.45;;;20.85;;
66830;SDS011;53739;44.224;22.528;2024-03-08T08:43:12;49.15;;;24.00;;
66830;SDS011;53739;44.224;22.528;2024-03-08T08:45:39;52.92;;;23.98;;
66830;SDS011;53739;44.224;22.528;2024-03-08T08:48:05;79.00;;;30.98;;
66830;SDS011;53739;44.224;22.528;2024-03-08T08:50:32;56.95;;;31.40;;
66830;SDS011;53739;44.224;22.528;2024-03-08T08:52:58;64.07;;;29.95;;
66830;SDS011;53739;44.224;22.528;2024-03-08T08:55:24;62.65;;;29.83;;
66830;SDS011;53739;44.224;22.528;2024-03-08T08:57:51;59.97;;;27.83;;
66830;SDS011;53739;44.224;22.528;2024-03-08T09:00:17;79.03;;;35.47;;
66830;SDS011;53739;44.224;22.528;2024-03-08T09:02:45;68.20;;;31.27;;
66830;SDS011;53739;44.224;22.528;2024-03-08T09:05:12;66.43;;;28.42;;
66830;SDS011;53739;44.224;22.528;2024-03-08T09:07:41;75.15;;;32.20;;
66830;SDS011;53739;44.224;22.528;2024-03-08T09:10:09;70.00;;;32.80;;
66830;SDS011;53739;44.224;22.528;2024-03-08T09:12:37;62.15;;;30.60;;
66830;SDS011;53739;44.224;22.528;2024-03-08T09:15:04;57.47;;;29.67;;
66830;SDS011;53739;44.224;22.528;2024-03-08T09:17:33;66.95;;;32.55;;
66830;SDS011;53739;44.224;22.528;2024-03-08T09:19:59;60.08;;;27.60;;
66830;SDS011;53739;44.224;22.528;2024-03-08T09:22:25;65.80;;;28.80;;
66830;SDS011;53739;44.224;22.528;2024-03-08T09:24:51;54.15;;;26.58;;
66830;SDS011;53739;44.224;22.528;2024-03-08T09:27:18;66.35;;;29.67;;
66830;SDS011;53739;44.224;22.528;2024-03-08T09:29:44;71.85;;;28.17;;
66830;SDS011;53739;44.224;22.528;2024-03-08T09:32:10;68.53;;;30.58;;
66830;SDS011;53739;44.224;22.528;2024-03-08T09:34:37;71.97;;;32.25;;
66830;SDS011;53739;44.224;22.528;2024-03-08T09:37:03;64.25;;;29.77;;
66830;SDS011;53739;44.224;22.528;2024-03-08T09:39:33;60.35;;;27.13;;
66830;SDS011;53739;44.224;22.528;2024-03-08T09:42:00;76.75;;;33.95;;
66830;SDS011;53739;44.224;22.528;2024-03-08T09:44:26;74.50;;;33.78;;
66830;SDS011;53739;44.224;22.528;2024-03-08T09:46:54;73.47;;;32.45;;
66830;SDS011;53739;44.224;22.528;2024-03-08T09:49:20;60.28;;;28.77;;
66830;SDS011;53739;44.224;22.528;2024-03-08T09:51:46;71.25;;;29.20;;
66830;SDS011;53739;44.224;22.528;2024-03-08T09:54:13;66.63;;;29.98;;
66830;SDS011;53739;44.224;22.528;2024-03-08T09:56:41;57.03;;;26.65;;
66830;SDS011;53739;44.224;22.528;2024-03-08T09:59:11;75.85;;;33.00;;
66830;SDS011;53739;44.224;22.528;2024-03-08T10:01:52;56.33;;;27.33;;
66830;SDS011;53739;44.224;22.528;2024-03-08T10:04:24;62.10;;;27.58;;
66830;SDS011;53739;44.224;22.528;2024-03-08T10:06:53;53.17;;;25.77;;
66830;SDS011;53739;44.224;22.528;2024-03-08T10:09:21;60.58;;;28.58;;
66830;SDS011;53739;44.224;22.528;2024-03-08T10:11:50;56.88;;;26.70;;
66830;SDS011;53739;44.224;22.528;2024-03-08T10:14:16;66.20;;;28.92;;
66830;SDS011;53739;44.224;22.528;2024-03-08T10:16:42;45.65;;;23.50;;
66830;SDS011;53739;44.224;22.528;2024-03-08T10:19:09;56.58;;;27.35;;
66830;SDS011;53739;44.224;22.528;2024-03-08T10:21:47;61.72;;;29.88;;
66830;SDS011;53739;44.224;22.528;2024-03-08T10:24:14;66.13;;;31.80;;
66830;SDS011;53739;44.224;22.528;2024-03-08T10:26:40;58.95;;;26.27;;
66830;SDS011;53739;44.224;22.528;2024-03-08T10:29:09;46.78;;;23.83;;
66830;SDS011;53739;44.224;22.528;2024-03-08T10:31:35;49.30;;;23.38;;
66830;SDS011;53739;44.224;22.528;2024-03-08T10:34:01;50.70;;;24.92;;
66830;SDS011;53739;44.224;22.528;2024-03-08T10:36:28;62.92;;;27.70;;
66830;SDS011;53739;44.224;22.528;2024-03-08T10:38:54;45.05;;;22.52;;
66830;SDS011;53739;44.224;22.528;2024-03-08T10:41:23;51.88;;;23.13;;
66830;SDS011;53739;44.224;22.528;2024-03-08T10:46:47;49.00;;;25.65;;
66830;SDS011;53739;44.224;22.528;2024-03-08T10:49:16;56.08;;;25.75;;
66830;SDS011;53739;44.224;22.528;2024-03-08T10:51:42;44.60;;;24.20;;
66830;SDS011;53739;44.224;22.528;2024-03-08T10:54:09;52.38;;;26.05;;
66830;SDS011;53739;44.224;22.528;2024-03-08T10:56:36;53.15;;;25.90;;
66830;SDS011;53739;44.224;22.528;2024-03-08T10:59:04;42.97;;;21.48;;
66830;SDS011;53739;44.224;22.528;2024-03-08T11:01:30;48.60;;;25.35;;
66830;SDS011;53739;44.224;22.528;2024-03-08T11:03:56;56.45;;;29.13;;
66830;SDS011;53739;44.224;22.528;2024-03-08T11:06:29;53.88;;;26.45;;
66830;SDS011;53739;44.224;22.528;2024-03-08T11:08:56;49.15;;;22.83;;
66830;SDS011;53739;44.224;22.528;2024-03-08T11:13:53;45.03;;;22.70;;
66830;SDS011;53739;44.224;22.528;2024-03-08T11:18:54;44.75;;;22.35;;
66830;SDS011;53739;44.224;22.528;2024-03-08T11:21:20;40.72;;;20.17;;
66830;SDS011;53739;44.224;22.528;2024-03-08T11:24:00;50.72;;;22.80;;
66830;SDS011;53739;44.224;22.528;2024-03-08T11:26:27;51.78;;;25.60;;
66830;SDS011;53739;44.224;22.528;2024-03-08T11:31:42;42.00;;;21.27;;
66830;SDS011;53739;44.224;22.528;2024-03-08T11:34:17;46.35;;;21.73;;
66830;SDS011;53739;44.224;22.528;2024-03-08T11:36:44;41.92;;;21.65;;
66830;SDS011;53739;44.224;22.528;2024-03-08T11:39:13;47.75;;;24.17;;
66830;SDS011;53739;44.224;22.528;2024-03-08T11:41:40;52.72;;;24.35;;
66830;SDS011;53739;44.224;22.528;2024-03-08T11:44:11;47.00;;;21.23;;
66830;SDS011;53739;44.224;22.528;2024-03-08T11:46:41;47.47;;;23.63;;
66830;SDS011;53739;44.224;22.528;2024-03-08T11:49:11;47.33;;;24.27;;
66830;SDS011;53739;44.224;22.528;2024-03-08T11:51:38;37.40;;;20.88;;
66830;SDS011;53739;44.224;22.528;2024-03-08T11:54:04;41.70;;;20.02;;
66830;SDS011;53739;44.224;22.528;2024-03-08T11:56:31;41.47;;;20.85;;
66830;SDS011;53739;44.224;22.528;2024-03-08T11:58:57;41.67;;;22.13;;
66830;SDS011;53739;44.224;22.528;2024-03-08T12:01:24;38.55;;;18.77;;
66830;SDS011;53739;44.224;22.528;2024-03-08T12:03:54;37.97;;;19.55;;
66830;SDS011;53739;44.224;22.528;2024-03-08T12:06:20;34.85;;;19.10;;
66830;SDS011;53739;44.224;22.528;2024-03-08T12:08:46;48.35;;;24.95;;
66830;SDS011;53739;44.224;22.528;2024-03-08T12:11:14;48.30;;;25.80;;
66830;SDS011;53739;44.224;22.528;2024-03-08T12:13:41;38.25;;;20.35;;
66830;SDS011;53739;44.224;22.528;2024-03-08T12:16:07;42.70;;;22.38;;
66830;SDS011;53739;44.224;22.528;2024-03-08T12:18:38;35.72;;;17.88;;
66830;SDS011;53739;44.224;22.528;2024-03-08T12:21:06;40.50;;;20.45;;
66830;SDS011;53739;44.224;22.528;2024-03-08T12:23:36;40.45;;;20.83;;
66830;SDS011;53739;44.224;22.528;2024-03-08T12:26:17;43.25;;;22.23;;
66830;SDS011;53739;44.224;22.528;2024-03-08T12:28:44;42.55;;;21.65;;
66830;SDS011;53739;44.224;22.528;2024-03-08T12:31:13;38.38;;;20.63;;
66830;SDS011;53739;44.224;22.528;2024-03-08T12:33:52;40.92;;;21.00;;
66830;SDS011;53739;44.224;22.528;2024-03-08T12:36:18;51.08;;;25.92;;
66830;SDS011;53739;44.224;22.528;2024-03-08T12:38:45;44.60;;;23.65;;
66830;SDS011;53739;44.224;22.528;2024-03-08T12:41:15;47.33;;;24.13;;
66830;SDS011;53739;44.224;22.528;2024-03-08T12:43:42;53.80;;;27.33;;
66830;SDS011;53739;44.224;22.528;2024-03-08T12:46:16;46.83;;;24.13;;
66830;SDS011;53739;44.224;22.528;2024-03-08T12:48:45;52.92;;;25.30;;
66830;SDS011;53739;44.224;22.528;2024-03-08T12:51:14;48.05;;;23.83;;
66830;SDS011;53739;44.224;22.528;2024-03-08T12:53:41;48.50;;;23.85;;
66830;SDS011;53739;44.224;22.528;2024-03-08T12:56:09;45.97;;;22.05;;
66830;SDS011;53739;44.224;22.528;2024-03-08T12:58:36;47.58;;;24.45;;
66830;SDS011;53739;44.224;22.528;2024-03-08T13:01:05;60.20;;;28.83;;
66830;SDS011;53739;44.224;22.528;2024-03-08T13:03:33;58.15;;;26.75;;
66830;SDS011;53739;44.224;22.528;2024-03-08T13:06:01;53.33;;;27.23;;
66830;SDS011;53739;44.224;22.528;2024-03-08T13:08:27;52.00;;;24.80;;
66830;SDS011;53739;44.224;22.528;2024-03-08T13:10:54;52.55;;;26.33;;
66830;SDS011;53739;44.224;22.528;2024-03-08T13:13:20;57.78;;;27.33;;
66830;SDS011;53739;44.224;22.528;2024-03-08T13:15:47;63.80;;;28.50;;
66830;SDS011;53739;44.224;22.528;2024-03-08T13:18:16;62.78;;;29.35;;
66830;SDS011;53739;44.224;22.528;2024-03-08T13:20:42;61.42;;;28.92;;
66830;SDS011;53739;44.224;22.528;2024-03-08T13:23:14;46.45;;;22.70;;
66830;SDS011;53739;44.224;22.528;2024-03-08T13:25:40;43.30;;;22.92;;
66830;SDS011;53739;44.224;22.528;2024-03-08T13:28:06;45.70;;;23.20;;
66830;SDS011;53739;44.224;22.528;2024-03-08T13:30:32;53.78;;;26.10;;
66830;SDS011;53739;44.224;22.528;2024-03-08T13:33:00;58.90;;;27.50;;
66830;SDS011;53739;44.224;22.528;2024-03-08T13:35:29;74.20;;;33.10;;
66830;SDS011;53739;44.224;22.528;2024-03-08T13:37:55;69.43;;;32.05;;
66830;SDS011;53739;44.224;22.528;2024-03-08T13:40:22;92.65;;;39.92;;
66830;SDS011;53739;44.224;22.528;2024-03-08T13:42:48;86.15;;;36.00;;
66830;SDS011;53739;44.224;22.528;2024-03-08T13:45:32;99.70;;;45.30;;
66830;SDS011;53739;44.224;22.528;2024-03-08T13:48:03;91.65;;;36.90;;
66830;SDS011;53739;44.224;22.528;2024-03-08T13:50:30;68.55;;;32.40;;
66830;SDS011;53739;44.224;22.528;2024-03-08T13:52:56;91.72;;;37.97;;
66830;SDS011;53739;44.224;22.528;2024-03-08T13:55:23;84.60;;;39.28;;
66830;SDS011;53739;44.224;22.528;2024-03-08T13:57:52;85.07;;;39.13;;
66830;SDS011;53739;44.224;22.528;2024-03-08T14:00:18;81.78;;;34.10;;
66830;SDS011;53739;44.224;22.528;2024-03-08T14:02:49;82.28;;;34.65;;
66830;SDS011;53739;44.224;22.528;2024-03-08T14:05:23;88.40;;;37.05;;
66830;SDS011;53739;44.224;22.528;2024-03-08T14:07:49;68.55;;;32.42;;
66830;SDS011;53739;44.224;22.528;2024-03-08T14:10:16;75.10;;;32.63;;
66830;SDS011;53739;44.224;22.528;2024-03-08T14:12:45;77.80;;;36.92;;
66830;SDS011;53739;44.224;22.528;2024-03-08T14:15:13;84.55;;;37.35;;
66830;SDS011;53739;44.224;22.528;2024-03-08T14:17:40;64.55;;;31.60;;
66830;SDS011;53739;44.224;22.528;2024-03-08T14:20:07;93.40;;;42.72;;
66830;SDS011;53739;44.224;22.528;2024-03-08T14:22:35;91.25;;;45.75;;
66830;SDS011;53739;44.224;22.528;2024-03-08T14:25:01;76.53;;;39.47;;